createdAt,value
2019-02-11T00:00:58.107Z,99516.09
2019-02-11T00:03:27.511Z,99524.25
2019-02-11T00:05:56.909Z,99524.25
2019-02-11T00:08:27.869Z,99523.58
2019-02-11T00:10:57.310Z,99540.00
2019-02-11T00:13:28.237Z,99548.31
2019-02-11T00:15:58.798Z,99554.39
2019-02-11T00:18:30.025Z,99564.13
2019-02-11T00:20:59.597Z,99567.80
2019-02-11T00:23:30.184Z,99571.47
2019-02-11T00:25:59.703Z,99584.91
2019-02-11T00:28:30.124Z,99597.57
2019-02-11T00:30:59.681Z,99594.72
2019-02-11T00:33:29.102Z,99594.81
2019-02-11T00:36:00.280Z,99604.74
2019-02-11T00:38:29.945Z,99609.66
2019-02-11T00:40:59.392Z,99622.42
2019-02-11T00:43:28.796Z,99611.47
2019-02-11T00:45:59.002Z,99629.02
2019-02-11T00:48:29.505Z,99631.48
2019-02-11T00:50:58.895Z,99643.98
2019-02-11T00:53:28.381Z,99646.22
2019-02-11T00:55:57.841Z,99654.45
2019-02-11T00:58:27.231Z,99648.30
2019-02-11T01:00:57.671Z,99662.11
2019-02-11T01:03:28.166Z,99671.47
2019-02-11T01:05:57.582Z,99678.95
2019-02-11T01:08:28.162Z,99687.66
2019-02-11T01:10:57.634Z,99688.97
2019-02-11T01:13:28.000Z,99693.70
2019-02-11T01:16:00.581Z,99702.09
2019-02-11T01:18:31.822Z,99702.29
2019-02-11T01:21:02.242Z,99708.34
2019-02-11T01:23:31.855Z,99702.38
2019-02-11T01:26:01.254Z,99715.27
2019-02-11T01:28:30.771Z,99728.41
2019-02-11T01:31:00.374Z,99728.41
2019-02-11T01:33:31.587Z,99734.55
2019-02-11T01:36:01.125Z,99741.56
2019-02-11T01:38:32.591Z,99746.95
2019-02-11T01:41:01.977Z,99752.51
2019-02-11T01:43:36.042Z,99762.44
2019-02-11T01:46:04.291Z,99762.25
2019-02-11T01:48:34.029Z,99770.28
2019-02-11T01:51:03.663Z,99772.47
2019-02-11T01:53:33.214Z,99780.52
2019-02-11T01:56:03.594Z,99780.80
2019-02-11T01:58:34.097Z,99788.75
2019-02-11T02:01:03.563Z,99784.97
2019-02-11T02:03:33.002Z,99794.23
2019-02-11T02:06:02.384Z,99801.91
2019-02-11T02:08:31.855Z,99812.14
2019-02-11T02:11:02.304Z,99814.39
2019-02-11T02:13:31.907Z,99822.73
2019-02-11T02:16:03.274Z,99826.41
2019-02-11T02:18:36.278Z,99826.51
2019-02-11T02:21:05.658Z,99825.55
2019-02-11T02:23:35.302Z,99832.09
2019-02-11T02:26:07.944Z,99837.11
2019-02-11T02:28:37.413Z,99838.81
2019-02-11T02:31:06.982Z,99844.30
2019-02-11T02:33:38.366Z,99838.25
2019-02-11T02:36:07.767Z,99847.99
2019-02-11T02:38:37.536Z,99846.87
2019-02-11T02:41:07.004Z,99858.41
2019-02-11T02:43:36.470Z,99864.00
2019-02-11T02:46:07.392Z,99856.05
2019-02-11T02:48:37.930Z,99865.68
2019-02-11T02:51:08.826Z,99867.41
2019-02-11T02:53:39.857Z,99868.73
2019-02-11T02:56:10.961Z,99871.95
2019-02-11T02:58:40.414Z,99874.40
2019-02-11T03:01:10.026Z,99883.30
2019-02-11T03:03:40.551Z,99880.62
2019-02-11T03:06:10.996Z,99889.32
2019-02-11T03:08:41.726Z,99889.73
2019-02-11T03:11:11.103Z,99895.79
2019-02-11T03:13:40.507Z,99898.04
2019-02-11T03:16:09.951Z,99903.34
2019-02-11T03:18:39.410Z,99901.36
2019-02-11T03:21:08.813Z,99912.70
2019-02-11T03:23:38.564Z,99913.94
2019-02-11T03:26:09.422Z,99920.61
2019-02-11T03:28:39.943Z,99923.42
2019-02-11T03:31:09.541Z,99933.16
2019-02-11T03:33:38.935Z,99932.69
2019-02-11T03:36:08.309Z,99945.78
2019-02-11T03:38:38.847Z,99942.58
2019-02-11T03:41:08.408Z,99943.44
2019-02-11T03:43:39.273Z,99954.10
2019-02-11T03:46:08.855Z,99953.53
2019-02-11T03:48:39.351Z,99966.43
2019-02-11T03:51:09.849Z,99968.89
2019-02-11T03:53:39.642Z,99980.61
2019-02-11T03:56:11.513Z,99982.98
2019-02-11T03:58:43.063Z,99984.13
2019-02-11T04:01:14.228Z,99989.52
2019-02-11T04:03:43.623Z,100000.84
2019-02-11T04:06:13.119Z,99999.00
2019-02-11T04:08:43.783Z,100006.56
2019-02-11T04:11:13.321Z,100024.00
2019-02-11T04:13:44.629Z,100026.34
2019-02-11T04:16:16.072Z,100024.85
2019-02-11T04:18:46.707Z,100037.91
2019-02-11T04:21:16.110Z,100035.36
2019-02-11T04:23:46.815Z,100032.03
2019-02-11T04:26:16.219Z,100037.80
2019-02-11T04:28:45.620Z,100039.11
2019-02-11T04:31:15.187Z,100048.94
2019-02-11T04:33:46.289Z,100049.41
2019-02-11T04:36:17.242Z,100048.52
2019-02-11T04:38:47.884Z,100052.12
2019-02-11T04:41:18.530Z,100062.05
2019-02-11T04:43:47.925Z,100070.03
2019-02-11T04:46:17.423Z,100081.33
2019-02-11T04:48:47.861Z,100074.31
2019-02-11T04:51:17.359Z,100074.89
2019-02-11T04:53:46.810Z,100083.38
2019-02-11T04:56:16.288Z,100097.76
2019-02-11T04:58:49.169Z,100098.31
2019-02-11T05:01:18.689Z,100106.02
2019-02-11T05:03:49.893Z,100115.84
2019-02-11T05:06:22.884Z,100112.91
2019-02-11T05:08:55.339Z,100121.83
2019-02-11T05:11:24.918Z,100138.90
2019-02-11T05:13:56.678Z,100143.83
2019-02-11T05:16:26.284Z,100141.14
2019-02-11T05:18:55.788Z,100144.78
2019-02-11T05:21:25.213Z,100143.92
2019-02-11T05:23:55.160Z,100150.05
2019-02-11T05:26:24.929Z,100156.16
2019-02-11T05:28:56.258Z,100157.27
2019-02-11T05:31:27.739Z,100163.45
2019-02-11T05:33:58.138Z,100167.74
2019-02-11T05:36:28.660Z,100166.23
2019-02-11T05:38:58.208Z,100167.92
2019-02-11T05:41:27.598Z,100178.16
2019-02-11T05:43:56.978Z,100187.13
2019-02-11T05:46:27.646Z,100187.13
2019-02-11T05:49:00.412Z,100181.48
2019-02-11T05:51:32.865Z,100186.88
2019-02-11T05:54:04.354Z,100185.65
2019-02-11T05:56:33.770Z,100189.84
2019-02-11T05:59:03.575Z,100206.77
2019-02-11T06:01:33.112Z,100206.87
2019-02-11T06:04:02.499Z,100203.12
2019-02-11T06:06:32.020Z,100220.47
2019-02-11T06:09:02.791Z,100232.18
2019-02-11T06:11:32.274Z,100226.11
2019-02-11T06:14:01.661Z,100232.73
2019-02-11T06:16:31.391Z,100235.05
2019-02-11T06:19:02.529Z,100241.64
2019-02-11T06:21:31.985Z,100260.97
2019-02-11T06:24:03.007Z,100258.49
2019-02-11T06:26:33.486Z,100268.60
2019-02-11T06:29:03.133Z,100282.49
2019-02-11T06:31:32.818Z,100270.61
2019-02-11T06:34:02.325Z,100281.22
2019-02-11T06:36:31.708Z,100306.89
2019-02-11T06:39:04.617Z,100310.91
2019-02-11T06:41:34.187Z,100325.84
2019-02-11T06:44:03.541Z,100336.85
2019-02-11T06:46:33.345Z,100335.72
2019-02-11T06:49:04.216Z,100347.80
2019-02-11T06:51:33.634Z,100350.44
2019-02-11T06:54:03.081Z,100357.17
2019-02-11T06:56:32.544Z,100362.19
2019-02-11T06:59:03.878Z,100374.67
2019-02-11T07:01:35.196Z,100385.91
2019-02-11T07:04:07.199Z,100393.77
2019-02-11T07:06:36.781Z,100402.36
2019-02-11T07:09:07.395Z,100407.80
2019-02-11T07:11:36.794Z,100416.63
2019-02-11T07:14:06.656Z,100421.14
2019-02-11T07:16:36.172Z,100422.53
2019-02-11T07:19:08.200Z,100433.22
2019-02-11T07:21:37.627Z,100442.24
2019-02-11T07:24:07.085Z,100443.34
2019-02-11T07:26:37.575Z,100447.65
2019-02-11T07:29:06.956Z,100466.77
2019-02-11T07:31:36.698Z,100468.23
2019-02-11T07:34:07.095Z,100472.76
2019-02-11T07:36:37.953Z,100476.98
2019-02-11T07:39:12.160Z,100488.73
2019-02-11T07:41:59.268Z,100485.08
2019-02-11T07:44:37.447Z,100488.05
2019-02-11T07:47:07.337Z,100495.28
2019-02-11T07:49:40.062Z,100498.58
2019-02-11T07:52:11.536Z,100509.09
2019-02-11T07:54:42.098Z,100498.48
2019-02-11T07:57:11.571Z,100508.16
2019-02-11T07:59:41.178Z,100514.16
2019-02-11T08:02:13.073Z,100528.02
2019-02-11T08:04:42.470Z,100528.89
2019-02-11T08:07:12.080Z,100532.41
2019-02-11T08:09:41.486Z,100537.92
2019-02-11T08:12:11.989Z,100549.70
2019-02-11T08:14:43.509Z,100551.04
2019-02-11T08:17:13.906Z,100544.80
2019-02-11T08:19:43.346Z,100555.75
2019-02-11T08:22:14.349Z,100560.22
2019-02-11T08:24:43.878Z,100555.17
2019-02-11T08:27:13.466Z,100549.23
2019-02-11T08:29:46.177Z,100565.39
2019-02-11T08:32:17.284Z,100562.17
2019-02-11T08:34:48.455Z,100575.91
2019-02-11T08:37:19.209Z,100580.13
2019-02-11T08:39:48.607Z,100592.30
2019-02-11T08:42:19.401Z,100588.55
2019-02-11T08:44:49.164Z,100588.87
2019-02-11T08:47:19.559Z,100615.31
2019-02-11T08:49:50.603Z,100611.47
2019-02-11T08:52:20.329Z,100615.69
2019-02-11T08:54:49.772Z,100614.99
2019-02-11T08:57:19.171Z,100612.09
2019-02-11T08:59:50.178Z,100609.53
2019-02-11T09:02:19.677Z,100609.91
2019-02-11T09:04:49.084Z,100629.25
2019-02-11T09:07:19.832Z,100648.52
2019-02-11T09:09:50.403Z,100650.87
2019-02-11T09:12:19.807Z,100652.12
2019-02-11T09:14:50.720Z,100666.64
2019-02-11T09:17:21.236Z,100673.30
2019-02-11T09:19:50.995Z,100683.52
2019-02-11T09:22:20.587Z,100686.33
2019-02-11T09:24:49.968Z,100687.89
2019-02-11T09:27:19.373Z,100687.55
2019-02-11T09:29:50.082Z,100691.02
2019-02-11T09:32:22.394Z,100688.13
2019-02-11T09:34:51.809Z,100724.03
2019-02-11T09:37:21.319Z,100717.39
2019-02-11T09:39:50.729Z,100716.98
2019-02-11T09:42:21.953Z,100734.08
2019-02-11T09:44:51.709Z,100739.41
2019-02-11T09:47:23.958Z,100741.99
2019-02-11T09:50:11.976Z,100771.20
2019-02-11T09:52:42.917Z,100752.48
2019-02-11T09:55:34.362Z,100764.88
2019-02-11T09:58:03.946Z,100776.27
2019-02-11T10:00:33.468Z,100779.73
2019-02-11T10:03:03.337Z,100784.17
2019-02-11T10:05:34.601Z,100796.53
2019-02-11T10:08:04.009Z,100797.77
2019-02-11T10:10:33.560Z,100797.20
2019-02-11T10:13:03.959Z,100813.95
2019-02-11T10:15:34.568Z,100826.59
2019-02-11T10:18:06.770Z,100817.14
2019-02-11T10:20:38.850Z,100843.13
2019-02-11T10:23:08.479Z,100833.92
2019-02-11T10:25:37.928Z,100844.53
2019-02-11T10:28:13.681Z,100850.66
2019-02-11T10:30:43.087Z,100854.95
2019-02-11T10:33:14.317Z,100861.61
2019-02-11T10:35:44.150Z,100874.41
2019-02-11T10:38:15.347Z,100881.36
2019-02-11T10:40:45.786Z,100875.98
2019-02-11T10:43:16.197Z,100882.55
2019-02-11T10:45:45.605Z,100886.76
2019-02-11T10:48:16.783Z,100891.61
2019-02-11T10:50:47.290Z,100897.33
2019-02-11T10:53:16.684Z,100912.79
2019-02-11T10:55:47.405Z,100915.99
2019-02-11T10:58:18.458Z,100919.75
2019-02-11T11:00:50.596Z,100927.63
2019-02-11T11:03:20.240Z,100925.91
2019-02-11T11:05:51.891Z,100941.56
2019-02-11T11:08:22.716Z,100939.20
2019-02-11T11:10:52.596Z,100946.70
2019-02-11T11:13:22.048Z,100956.64
2019-02-11T11:15:51.589Z,100962.05
2019-02-11T11:18:21.093Z,100966.81
2019-02-11T11:20:53.151Z,100968.75
2019-02-11T11:23:24.275Z,100983.85
2019-02-11T11:25:55.224Z,100976.84
2019-02-11T11:28:27.746Z,100985.41
2019-02-11T11:31:00.579Z,100979.95
2019-02-11T11:33:30.342Z,100993.78
2019-02-11T11:36:01.349Z,100999.89
2019-02-11T11:38:31.950Z,101007.72
2019-02-11T11:41:03.464Z,101013.35
2019-02-11T11:43:33.060Z,101017.42
2019-02-11T11:46:05.466Z,101021.03
2019-02-11T11:48:35.011Z,101022.73
2019-02-11T11:51:04.751Z,101037.99
2019-02-11T11:53:34.505Z,101046.03
2019-02-11T11:56:05.506Z,101044.55
2019-02-11T11:58:35.035Z,101057.25
2019-02-11T12:01:04.825Z,101055.42
2019-02-11T12:03:37.633Z,101065.83
2019-02-11T12:06:07.060Z,101074.89
2019-02-11T12:08:37.686Z,101072.31
2019-02-11T12:11:07.605Z,101079.49
2019-02-11T12:13:38.263Z,101092.73
2019-02-11T12:16:10.379Z,101106.61
2019-02-11T12:18:40.312Z,101093.70
2019-02-11T12:21:09.701Z,101100.26
2019-02-11T12:23:41.154Z,101103.62
2019-02-11T12:26:11.911Z,101109.27
2019-02-11T12:28:41.421Z,101117.80
2019-02-11T12:31:13.760Z,101119.59
2019-02-11T12:33:44.529Z,101108.05
2019-02-11T12:36:16.480Z,101119.28
2019-02-11T12:38:48.383Z,101134.09
2019-02-11T12:41:18.061Z,101137.88
2019-02-11T12:43:48.650Z,101148.22
2019-02-11T12:46:19.626Z,101151.97
2019-02-11T12:48:49.170Z,101155.66
2019-02-11T12:51:18.759Z,101162.02
2019-02-11T12:53:50.014Z,101167.72
2019-02-11T12:56:20.551Z,101180.14
2019-02-11T12:58:50.090Z,101180.25
2019-02-11T13:01:20.583Z,101190.73
2019-02-11T13:03:53.153Z,101196.84
2019-02-11T13:06:22.773Z,101205.70
2019-02-11T13:08:52.299Z,101212.67
2019-02-11T13:11:21.846Z,101231.23
2019-02-11T13:13:51.365Z,101226.87
2019-02-11T13:16:22.636Z,101246.17
2019-02-11T13:18:52.745Z,101242.30
2019-02-11T13:21:23.675Z,101254.20
2019-02-11T13:23:53.498Z,101255.25
2019-02-11T13:26:23.144Z,101267.33
2019-02-11T13:28:53.655Z,101274.91
2019-02-11T13:31:23.206Z,101269.45
2019-02-11T13:33:52.939Z,101283.39
2019-02-11T13:36:27.101Z,101290.70
2019-02-11T13:38:59.145Z,101301.45
2019-02-11T13:41:28.618Z,101299.08
2019-02-11T13:43:58.041Z,101305.17
2019-02-11T13:46:29.358Z,101312.56
2019-02-11T13:48:59.354Z,101314.62
2019-02-11T13:51:30.984Z,101319.86
2019-02-11T13:54:00.548Z,101334.47
2019-02-11T13:56:30.234Z,101341.53
2019-02-11T13:58:59.668Z,101352.81
2019-02-11T14:01:29.128Z,101356.20
2019-02-11T14:03:58.650Z,101354.14
2019-02-11T14:06:28.036Z,101367.02
2019-02-11T14:08:57.465Z,101377.95
2019-02-11T14:11:27.276Z,101377.67
2019-02-11T14:14:02.833Z,101393.33
2019-02-11T14:16:29.614Z,101402.20
2019-02-11T14:19:00.426Z,101412.02
2019-02-11T14:21:30.898Z,101415.70
2019-02-11T14:24:00.961Z,101419.05
2019-02-11T14:26:33.861Z,101423.00
2019-02-11T14:29:06.958Z,101430.17
2019-02-11T14:31:36.907Z,101430.94
2019-02-11T14:34:10.258Z,101432.97
2019-02-11T14:36:43.074Z,101441.21
2019-02-11T14:39:13.425Z,101449.39
2019-02-11T14:41:44.451Z,101452.15
2019-02-11T14:44:14.275Z,101454.89
2019-02-11T14:46:43.838Z,101470.47
2019-02-11T14:49:14.594Z,101470.99
2019-02-11T14:51:44.942Z,101479.41
2019-02-11T14:54:14.510Z,101479.77
2019-02-11T14:56:45.764Z,101487.95
2019-02-11T14:59:15.217Z,101505.67
2019-02-11T15:01:46.100Z,101505.05
2019-02-11T15:04:15.522Z,101509.33
2019-02-11T15:06:44.967Z,101516.66
2019-02-11T15:09:15.908Z,101523.42
2019-02-11T15:11:46.364Z,101513.22
2019-02-11T15:14:16.976Z,101532.38
2019-02-11T15:16:46.361Z,101538.40
2019-02-11T15:19:15.924Z,101538.32
2019-02-11T15:21:45.305Z,101541.04
2019-02-11T15:24:17.524Z,101548.40
2019-02-11T15:26:48.979Z,101547.38
2019-02-11T15:29:18.377Z,101570.56
2019-02-11T15:31:48.225Z,101566.59
2019-02-11T15:34:17.921Z,101571.14
2019-02-11T15:36:48.855Z,101573.19
2019-02-11T15:39:19.285Z,101585.18
2019-02-11T15:41:50.841Z,101595.48
2019-02-11T15:44:20.603Z,101584.33
2019-02-11T15:46:50.168Z,101594.23
2019-02-11T15:49:19.637Z,101599.20
2019-02-11T15:51:49.373Z,101602.64
2019-02-11T15:54:19.911Z,101624.66
2019-02-11T15:56:50.499Z,101623.52
2019-02-11T15:59:20.972Z,101623.66
2019-02-11T16:01:53.399Z,101620.92
2019-02-11T16:04:22.951Z,101624.33
2019-02-11T16:06:53.899Z,101646.23
2019-02-11T16:09:24.483Z,101656.84
2019-02-11T16:11:54.804Z,101665.38
2019-02-11T16:14:24.187Z,101681.45
2019-02-11T16:16:55.416Z,101699.27
2019-02-11T16:19:25.059Z,101697.73
2019-02-11T16:21:54.416Z,101720.64
2019-02-11T16:24:23.865Z,101726.98
2019-02-11T16:26:53.261Z,101734.75
2019-02-11T16:29:22.766Z,101751.19
2019-02-11T16:32:00.601Z,101758.52
2019-02-11T16:34:25.220Z,101769.27
2019-02-11T16:36:55.666Z,101777.21
2019-02-11T16:39:25.131Z,101783.09
2019-02-11T16:41:56.757Z,101793.00
2019-02-11T16:44:27.066Z,101798.29
2019-02-11T16:46:58.164Z,101811.88
2019-02-11T16:49:27.780Z,101818.58
2019-02-11T16:51:57.238Z,101834.41
2019-02-11T16:54:28.110Z,101839.41
2019-02-11T16:56:57.771Z,101834.70
2019-02-11T16:59:29.029Z,101840.87
2019-02-11T17:01:58.447Z,101844.44
2019-02-11T17:04:27.880Z,101857.81
2019-02-11T17:06:57.360Z,101873.78
2019-02-11T17:09:26.752Z,101880.56
2019-02-11T17:11:57.193Z,101871.78
2019-02-11T17:14:26.818Z,101880.52
2019-02-11T17:16:56.755Z,101895.11
2019-02-11T17:19:26.978Z,101903.05
2019-02-11T17:21:57.695Z,101927.91
2019-02-11T17:24:28.833Z,101908.95
2019-02-11T17:26:58.451Z,101925.66
2019-02-11T17:29:27.947Z,101924.73
2019-02-11T17:31:57.339Z,101928.02
2019-02-11T17:34:28.505Z,101917.47
2019-02-11T17:36:57.883Z,101919.72
2019-02-11T17:39:28.380Z,101927.05
2019-02-11T17:41:57.917Z,101929.45
2019-02-11T17:44:27.391Z,101941.77
2019-02-11T17:46:56.879Z,101945.69
2019-02-11T17:49:27.415Z,101951.98
2019-02-11T17:51:56.908Z,101968.38
2019-02-11T17:54:27.788Z,101964.76
2019-02-11T17:56:58.268Z,101968.91
2019-02-11T17:59:27.691Z,101968.73
2019-02-11T18:02:00.768Z,101977.83
2019-02-11T18:04:31.635Z,101976.15
2019-02-11T18:07:01.033Z,101976.33
2019-02-11T18:09:31.547Z,101985.72
2019-02-11T18:12:01.273Z,101985.33
2019-02-11T18:14:30.698Z,101989.78
2019-02-11T18:17:01.574Z,101987.80
2019-02-11T18:19:32.160Z,101988.50
2019-02-11T18:22:01.725Z,101994.90
2019-02-11T18:24:31.221Z,102015.28
2019-02-11T18:27:00.728Z,102015.23
2019-02-11T18:29:30.120Z,102024.09
2019-02-11T18:32:01.235Z,102029.03
2019-02-11T18:34:30.796Z,102036.20
2019-02-11T18:37:01.390Z,102029.80
2019-02-11T18:39:32.493Z,102048.95
2019-02-11T18:42:03.757Z,102045.39
2019-02-11T18:44:34.619Z,102054.95
2019-02-11T18:47:04.006Z,102060.09
2019-02-11T18:49:34.734Z,102076.04
2019-02-11T18:52:05.834Z,102079.31
2019-02-11T18:54:35.539Z,102082.83
2019-02-11T18:57:06.320Z,102090.70
2019-02-11T18:59:35.996Z,102095.98
2019-02-11T19:02:05.513Z,102099.30
2019-02-11T19:04:35.018Z,102107.48
2019-02-11T19:07:04.508Z,102109.06
2019-02-11T19:09:34.492Z,102116.48
2019-02-11T19:12:03.973Z,102114.83
2019-02-11T19:14:34.696Z,102121.63
2019-02-11T19:17:05.417Z,102106.34
2019-02-11T19:19:42.962Z,102105.57
2019-02-11T19:22:07.913Z,102109.62
2019-02-11T19:24:37.365Z,102109.62
2019-02-11T19:27:08.884Z,102111.89
2019-02-11T19:29:38.300Z,102128.77
2019-02-11T19:32:09.018Z,102124.87
2019-02-11T19:34:38.914Z,102131.70
2019-02-11T19:37:08.542Z,102133.20
2019-02-11T19:39:38.985Z,102137.69
2019-02-11T19:42:10.053Z,102143.59
2019-02-11T19:44:39.554Z,102138.30
2019-02-11T19:47:10.746Z,102141.49
2019-02-11T19:49:40.468Z,102148.55
2019-02-11T19:52:09.904Z,102153.91
2019-02-11T19:54:39.787Z,102153.84
2019-02-11T19:57:11.352Z,102155.30
2019-02-11T19:59:42.640Z,102155.63
2019-02-11T20:02:15.264Z,102158.45
2019-02-11T20:04:45.005Z,102150.98
2019-02-11T20:07:15.509Z,102150.95
2019-02-11T20:09:45.043Z,102147.93
2019-02-11T20:12:15.755Z,102148.63
2019-02-11T20:14:45.205Z,102149.04
2019-02-11T20:17:16.319Z,102157.50
2019-02-11T20:19:45.995Z,102160.94
2019-02-11T20:22:15.671Z,102162.73
2019-02-11T20:24:46.958Z,102162.00
2019-02-11T20:27:17.666Z,102164.27
2019-02-11T20:29:47.169Z,102166.79
2019-02-11T20:32:17.571Z,102167.38
2019-02-11T20:34:49.026Z,102161.27
2019-02-11T20:37:18.447Z,102177.01
2019-02-11T20:39:47.923Z,102189.31
2019-02-11T20:42:17.544Z,102190.63
2019-02-11T20:44:47.047Z,102192.02
2019-02-11T20:47:16.525Z,102194.59
2019-02-11T20:49:46.181Z,102201.27
2019-02-11T20:52:17.395Z,102207.25
2019-02-11T20:54:46.935Z,102212.80
2019-02-11T20:57:17.664Z,102217.53
2019-02-11T20:59:47.320Z,102225.41
2019-02-11T21:02:17.717Z,102229.40
2019-02-11T21:04:47.330Z,102230.97
2019-02-11T21:07:17.963Z,102237.94
2019-02-11T21:09:47.392Z,102242.17
2019-02-11T21:12:17.997Z,102237.50
2019-02-11T21:14:47.395Z,102242.31
2019-02-11T21:17:16.786Z,102240.09
2019-02-11T21:19:46.351Z,102241.32
2019-02-11T21:22:15.914Z,102251.13
2019-02-11T21:24:45.317Z,102249.39
2019-02-11T21:27:15.867Z,102247.16
2019-02-11T21:29:45.373Z,102259.05
2019-02-11T21:32:14.948Z,102267.84
2019-02-11T21:34:45.517Z,102271.44
2019-02-11T21:37:16.476Z,102270.14
2019-02-11T21:39:47.939Z,102273.64
2019-02-11T21:42:17.538Z,102274.08
2019-02-11T21:44:46.972Z,102280.19
2019-02-11T21:47:16.445Z,102271.30
2019-02-11T21:49:48.617Z,102281.93
2019-02-11T21:52:19.816Z,102283.61
2019-02-11T21:54:50.349Z,102288.92
2019-02-11T21:57:20.909Z,102290.14
2019-02-11T21:59:51.417Z,102290.55
2019-02-11T22:02:20.803Z,102299.50
2019-02-11T22:04:50.894Z,102307.23
2019-02-11T22:07:20.393Z,102310.84
2019-02-11T22:09:51.034Z,102306.63
2019-02-11T22:12:20.750Z,102297.27
2019-02-11T22:14:51.456Z,102295.45
2019-02-11T22:17:22.311Z,102307.30
2019-02-11T22:19:53.058Z,102308.52
2019-02-11T22:22:22.657Z,102309.80
2019-02-11T22:24:52.088Z,102314.20
2019-02-11T22:27:23.612Z,102307.23
2019-02-11T22:29:53.003Z,102304.53
2019-02-11T22:32:26.055Z,102308.23
2019-02-11T22:34:55.546Z,102316.22
2019-02-11T22:37:24.979Z,102318.23
2019-02-11T22:39:57.535Z,102339.45
2019-02-11T22:42:28.055Z,102343.40
2019-02-11T22:44:58.925Z,102355.29
2019-02-11T22:47:28.337Z,102356.56
2019-02-11T22:49:57.907Z,102351.58
2019-02-11T22:52:27.322Z,102343.57
2019-02-11T22:54:57.436Z,102336.80
2019-02-11T22:57:28.918Z,102357.21
2019-02-11T22:59:59.318Z,102348.75
2019-02-11T23:02:32.384Z,102359.74
2019-02-11T23:05:03.438Z,102363.33
2019-02-11T23:07:32.839Z,102353.98
2019-02-11T23:10:02.724Z,102357.05
2019-02-11T23:12:32.225Z,102363.69
2019-02-11T23:15:01.831Z,102370.80
2019-02-11T23:17:31.243Z,102362.30
2019-02-11T23:20:02.136Z,102352.12
2019-02-11T23:22:31.785Z,102359.09
2019-02-11T23:25:03.312Z,102370.63
2019-02-11T23:27:32.697Z,102384.88
2019-02-11T23:30:02.100Z,102379.55
2019-02-11T23:32:31.744Z,102387.02
2019-02-11T23:35:01.168Z,102389.28
2019-02-11T23:37:31.585Z,102389.87
2019-02-11T23:40:01.288Z,102380.95
2019-02-11T23:42:32.315Z,102393.30
2019-02-11T23:45:02.826Z,102394.16
2019-02-11T23:47:33.475Z,102398.20
2019-02-11T23:50:02.882Z,102403.52
2019-02-11T23:52:35.293Z,102408.38
2019-02-11T23:55:05.166Z,102393.41
2019-02-11T23:57:35.811Z,102394.83
